createdAt,value
2023-04-10T00:01:25.350Z,47.20
2023-04-10T00:03:53.830Z,47.37
2023-04-10T00:06:23.277Z,47.40
2023-04-10T00:08:51.057Z,47.27
2023-04-10T00:11:18.853Z,47.43
2023-04-10T00:13:46.682Z,47.27
2023-04-10T00:16:14.505Z,47.27
2023-04-10T00:18:42.326Z,47.33
2023-04-10T00:21:10.160Z,47.30
2023-04-10T00:23:39.579Z,47.13
2023-04-10T00:26:07.589Z,47.40
2023-04-10T00:28:37.908Z,47.27
2023-04-10T00:31:06.413Z,47.13
2023-04-10T00:33:34.496Z,47.23
2023-04-10T00:36:02.386Z,47.00
2023-04-10T00:38:30.542Z,47.23
2023-04-10T00:40:59.679Z,47.00
2023-04-10T00:43:27.497Z,47.10
2023-04-10T00:45:55.462Z,46.80
2023-04-10T00:48:23.347Z,47.07
2023-04-10T00:50:51.197Z,47.00
2023-04-10T00:53:19.145Z,47.10
2023-04-10T00:55:47.615Z,47.13
2023-04-10T00:58:17.011Z,47.10
2023-04-10T01:00:45.342Z,47.07
2023-04-10T01:03:14.054Z,46.70
2023-04-10T01:05:48.421Z,47.30
2023-04-10T01:08:27.669Z,47.37
2023-04-10T01:11:03.032Z,47.20
2023-04-10T01:13:40.266Z,47.13
2023-04-10T01:16:17.044Z,47.23
2023-04-10T01:18:47.665Z,47.20
2023-04-10T01:21:17.124Z,47.37
2023-04-10T01:24:08.411Z,46.87
2023-04-10T01:26:53.459Z,47.00
2023-04-10T01:29:26.764Z,47.13
2023-04-10T01:31:59.163Z,47.00
2023-04-10T01:34:33.316Z,47.03
2023-04-10T01:37:05.184Z,47.10
2023-04-10T01:39:37.113Z,47.07
2023-04-10T01:42:07.790Z,47.13
2023-04-10T01:44:43.169Z,47.10
2023-04-10T01:47:11.432Z,46.80
2023-04-10T01:49:44.344Z,46.73
2023-04-10T01:52:12.921Z,47.03
2023-04-10T01:54:43.224Z,47.07
2023-04-10T01:57:15.386Z,46.93
2023-04-10T02:00:00.269Z,46.97
2023-04-10T02:02:31.955Z,46.97
2023-04-10T02:05:00.024Z,46.83
2023-04-10T02:07:33.040Z,46.90
2023-04-10T02:10:06.011Z,46.90
2023-04-10T02:12:40.106Z,47.03
2023-04-10T02:15:11.524Z,46.70
2023-04-10T02:17:40.996Z,46.83
2023-04-10T02:20:11.559Z,46.90
2023-04-10T02:22:43.743Z,46.40
2023-04-10T02:25:12.171Z,46.87
2023-04-10T02:27:40.289Z,47.10
2023-04-10T02:30:10.374Z,47.00
2023-04-10T02:32:38.689Z,46.57
2023-04-10T02:35:09.717Z,47.03
2023-04-10T02:37:38.706Z,46.93
2023-04-10T02:40:08.371Z,46.87
2023-04-10T02:42:46.109Z,46.57
2023-04-10T02:45:15.316Z,46.80
2023-04-10T02:47:45.019Z,46.50
2023-04-10T02:50:12.916Z,46.47
2023-04-10T02:52:44.237Z,46.97
2023-04-10T02:55:12.608Z,46.73
2023-04-10T02:57:42.417Z,46.87
2023-04-10T03:00:12.172Z,46.57
2023-04-10T03:03:07.749Z,46.73
2023-04-10T03:05:44.050Z,46.93
2023-04-10T03:08:11.915Z,46.90
2023-04-10T03:10:40.214Z,46.50
2023-04-10T03:13:08.359Z,46.67
2023-04-10T03:15:36.179Z,46.57
2023-04-10T03:18:04.199Z,46.63
2023-04-10T03:20:33.513Z,46.50
2023-04-10T03:23:01.606Z,46.37
2023-04-10T03:25:29.427Z,46.30
2023-04-10T03:27:57.363Z,46.53
2023-04-10T03:30:25.409Z,46.47
2023-04-10T03:32:53.624Z,46.70
2023-04-10T03:35:21.695Z,46.70
2023-04-10T03:37:50.912Z,46.77
2023-04-10T03:40:20.688Z,47.00
2023-04-10T03:42:48.992Z,46.73
2023-04-10T03:45:17.055Z,46.70
2023-04-10T03:47:44.965Z,46.77
2023-04-10T03:50:16.635Z,46.67
2023-04-10T03:52:54.435Z,46.97
2023-04-10T03:55:24.018Z,46.83
2023-04-10T03:57:52.783Z,46.90
2023-04-10T04:00:26.331Z,46.53
2023-04-10T04:03:06.999Z,46.67
2023-04-10T04:06:01.951Z,46.63
2023-04-10T04:08:43.855Z,46.63
2023-04-10T04:11:38.469Z,46.80
2023-04-10T04:14:18.323Z,46.60
2023-04-10T04:17:12.606Z,47.00
2023-04-10T04:19:56.140Z,46.40
2023-04-10T04:22:34.765Z,46.70
2023-04-10T04:25:16.361Z,46.80
2023-04-10T04:28:17.359Z,46.70
2023-04-10T04:31:14.757Z,46.57
2023-04-10T04:34:02.611Z,46.50
2023-04-10T04:36:51.098Z,46.57
2023-04-10T04:39:39.808Z,46.00
2023-04-10T04:42:35.774Z,46.03
2023-04-10T04:45:30.929Z,45.90
2023-04-10T04:48:17.121Z,45.77
2023-04-10T04:50:55.637Z,45.90
2023-04-10T04:53:48.599Z,45.67
2023-04-10T04:56:48.822Z,45.27
2023-04-10T04:59:45.454Z,45.70
2023-04-10T05:02:42.360Z,45.67
2023-04-10T05:05:42.445Z,45.47
2023-04-10T05:08:13.273Z,45.77
2023-04-10T05:10:47.717Z,45.57
2023-04-10T05:13:35.407Z,45.57
2023-04-10T05:16:25.563Z,45.60
2023-04-10T05:19:12.015Z,45.67
2023-04-10T05:21:54.250Z,45.53
2023-04-10T05:24:44.316Z,45.70
2023-04-10T05:27:12.140Z,45.63
2023-04-10T05:30:03.587Z,45.30
2023-04-10T05:32:43.472Z,45.30
2023-04-10T05:35:23.274Z,45.80
2023-04-10T05:38:17.350Z,45.80
2023-04-10T05:40:56.666Z,45.40
2023-04-10T05:43:36.538Z,45.80
2023-04-10T05:46:23.254Z,45.70
2023-04-10T05:49:16.722Z,45.63
2023-04-10T05:52:07.437Z,45.90
2023-04-10T05:55:02.565Z,45.40
2023-04-10T05:57:53.774Z,45.60
2023-04-10T06:00:44.727Z,45.87
2023-04-10T06:03:45.597Z,45.63
2023-04-10T06:06:15.921Z,45.67
2023-04-10T06:08:44.116Z,45.70
2023-04-10T06:11:11.930Z,45.73
2023-04-10T06:13:41.780Z,45.87
2023-04-10T06:16:10.393Z,45.80
2023-04-10T06:18:39.396Z,45.83
2023-04-10T06:21:07.863Z,46.10
2023-04-10T06:23:37.165Z,46.13
2023-04-10T06:26:05.612Z,45.63
2023-04-10T06:28:33.490Z,46.00
2023-04-10T06:31:04.351Z,46.27
2023-04-10T06:33:36.460Z,46.53
2023-04-10T06:36:06.263Z,46.63
2023-04-10T06:38:40.489Z,46.77
2023-04-10T06:41:08.536Z,46.87
2023-04-10T06:43:37.919Z,46.90
2023-04-10T06:46:06.248Z,47.43
2023-04-10T06:48:34.771Z,47.07
2023-04-10T06:51:02.762Z,47.50
2023-04-10T06:53:30.922Z,47.63
2023-04-10T06:56:02.987Z,47.80
2023-04-10T06:58:31.339Z,48.37
2023-04-10T07:01:04.155Z,48.13
2023-04-10T07:03:32.315Z,48.07
2023-04-10T07:06:01.817Z,48.37
2023-04-10T07:08:29.654Z,48.73
2023-04-10T07:10:58.722Z,48.50
2023-04-10T07:13:28.193Z,48.77
2023-04-10T07:15:56.120Z,48.97
2023-04-10T07:18:23.944Z,48.43
2023-04-10T07:20:52.559Z,48.77
2023-04-10T07:23:20.563Z,49.37
2023-04-10T07:25:48.394Z,49.23
2023-04-10T07:28:16.178Z,50.00
2023-04-10T07:30:45.398Z,49.50
2023-04-10T07:33:13.621Z,50.20
2023-04-10T07:35:41.624Z,49.80
2023-04-10T07:38:09.503Z,49.87
2023-04-10T07:40:37.292Z,49.70
2023-04-10T07:43:05.243Z,49.53
2023-04-10T07:45:33.452Z,49.40
2023-04-10T07:48:03.278Z,49.77
2023-04-10T07:50:31.370Z,49.67
2023-04-10T07:53:03.311Z,49.50
2023-04-10T07:55:31.134Z,49.77
2023-04-10T07:57:58.957Z,49.73
2023-04-10T08:00:26.777Z,49.90
2023-04-10T08:02:54.825Z,49.90
2023-04-10T08:05:24.248Z,50.23
2023-04-10T08:07:52.182Z,50.03
2023-04-10T08:10:20.282Z,49.93
2023-04-10T08:12:48.130Z,50.67
2023-04-10T08:15:16.151Z,50.43
2023-04-10T08:17:44.045Z,50.50
2023-04-10T08:20:13.054Z,50.53
2023-04-10T08:22:42.211Z,50.43
2023-04-10T08:25:10.840Z,50.27
2023-04-10T08:27:38.813Z,50.90
2023-04-10T08:30:07.687Z,50.90
2023-04-10T08:32:36.684Z,50.43
2023-04-10T08:35:04.968Z,49.97
2023-04-10T08:37:32.806Z,50.37
2023-04-10T08:40:02.101Z,49.60
2023-04-10T08:42:31.223Z,49.93
2023-04-10T08:44:59.032Z,49.87
2023-04-10T08:47:29.477Z,49.87
2023-04-10T08:49:58.719Z,49.70
2023-04-10T08:52:28.903Z,49.77
2023-04-10T08:54:58.389Z,50.07
2023-04-10T08:57:27.983Z,50.20
2023-04-10T08:59:56.017Z,50.27
2023-04-10T09:02:25.228Z,50.33
2023-04-10T09:04:55.182Z,50.43
2023-04-10T09:07:24.024Z,50.27
2023-04-10T09:09:51.886Z,50.60
2023-04-10T09:12:19.806Z,50.23
2023-04-10T09:14:53.181Z,50.50
2023-04-10T09:17:22.711Z,50.37
2023-04-10T09:19:53.482Z,50.67
2023-04-10T09:22:32.456Z,50.77
2023-04-10T09:25:01.483Z,50.50
2023-04-10T09:27:35.098Z,50.70
2023-04-10T09:30:05.743Z,50.40
2023-04-10T09:32:42.018Z,50.60
2023-04-10T09:35:11.185Z,50.57
2023-04-10T09:37:41.073Z,50.80
2023-04-10T09:40:21.292Z,50.53
2023-04-10T09:42:49.172Z,50.57
2023-04-10T09:45:19.868Z,50.47
2023-04-10T09:48:04.073Z,50.87
2023-04-10T09:50:40.240Z,50.77
2023-04-10T09:53:09.070Z,50.80
2023-04-10T09:55:37.642Z,50.67
2023-04-10T09:58:06.794Z,50.43
2023-04-10T10:00:41.956Z,50.60
2023-04-10T10:03:11.803Z,50.80
2023-04-10T10:05:41.986Z,49.90
2023-04-10T10:08:11.695Z,49.73
2023-04-10T10:10:45.564Z,49.60
2023-04-10T10:13:18.812Z,50.47
2023-04-10T10:15:55.689Z,50.37
2023-04-10T10:18:32.766Z,50.27
2023-04-10T10:21:01.250Z,50.10
2023-04-10T10:23:29.493Z,49.93
2023-04-10T10:25:59.877Z,50.33
2023-04-10T10:28:32.298Z,50.87
2023-04-10T10:31:02.364Z,50.50
2023-04-10T10:33:31.683Z,50.27
2023-04-10T10:36:00.564Z,50.37
2023-04-10T10:38:28.651Z,50.13
2023-04-10T10:41:10.380Z,50.30
2023-04-10T10:43:51.614Z,50.07
2023-04-10T10:46:26.598Z,50.47
2023-04-10T10:48:57.904Z,50.10
2023-04-10T10:51:43.416Z,50.73
2023-04-10T10:54:29.546Z,50.70
2023-04-10T10:56:57.539Z,50.43
2023-04-10T10:59:55.611Z,50.73
2023-04-10T11:02:25.202Z,50.57
2023-04-10T11:04:53.117Z,50.57
2023-04-10T11:07:20.928Z,50.37
2023-04-10T11:09:53.098Z,50.40
2023-04-10T11:12:24.284Z,50.30
2023-04-10T11:15:00.186Z,50.23
2023-04-10T11:17:51.981Z,50.37
2023-04-10T11:20:22.083Z,50.53
2023-04-10T11:23:10.030Z,50.53
2023-04-10T11:25:51.786Z,50.60
2023-04-10T11:28:35.918Z,50.97
2023-04-10T11:31:19.191Z,50.40
2023-04-10T11:33:49.255Z,51.00
2023-04-10T11:36:18.471Z,50.53
2023-04-10T11:38:56.920Z,50.77
2023-04-10T11:41:30.307Z,51.13
2023-04-10T11:43:58.548Z,50.80
2023-04-10T11:46:26.516Z,50.87
2023-04-10T11:48:57.180Z,50.53
2023-04-10T11:51:27.130Z,50.60
2023-04-10T11:54:06.352Z,51.07
2023-04-10T11:56:34.143Z,50.70
2023-04-10T11:59:07.007Z,50.07
2023-04-10T12:01:35.325Z,50.67
2023-04-10T12:04:04.770Z,50.93
2023-04-10T12:06:32.899Z,50.87
2023-04-10T12:09:00.722Z,50.83
2023-04-10T12:11:29.536Z,50.77
2023-04-10T12:13:58.810Z,51.17
2023-04-10T12:16:27.295Z,50.83
2023-04-10T12:18:55.670Z,51.07
2023-04-10T12:21:24.924Z,50.63
2023-04-10T12:23:53.080Z,50.97
2023-04-10T12:26:21.505Z,50.17
2023-04-10T12:28:54.289Z,51.20
2023-04-10T12:31:28.977Z,51.17
2023-04-10T12:33:57.790Z,51.00
2023-04-10T12:36:30.040Z,50.67
2023-04-10T12:38:58.466Z,51.03
2023-04-10T12:41:28.113Z,51.13
2023-04-10T12:44:08.273Z,50.90
2023-04-10T12:46:36.820Z,50.90
2023-04-10T12:49:11.894Z,50.67
2023-04-10T12:51:45.454Z,50.83
2023-04-10T12:54:13.407Z,50.97
2023-04-10T12:56:47.160Z,50.60
2023-04-10T12:59:14.949Z,50.80
2023-04-10T13:01:42.824Z,50.47
2023-04-10T13:04:11.256Z,50.53
2023-04-10T13:06:45.198Z,51.07
2023-04-10T13:09:13.395Z,51.10
2023-04-10T13:11:41.321Z,50.70
2023-04-10T13:14:09.780Z,50.70
2023-04-10T13:16:38.068Z,50.37
2023-04-10T13:19:05.912Z,50.87
2023-04-10T13:21:33.695Z,51.00
2023-04-10T13:24:02.898Z,50.53
2023-04-10T13:26:30.706Z,51.00
2023-04-10T13:28:58.508Z,51.27
2023-04-10T13:31:26.342Z,50.57
2023-04-10T13:33:54.146Z,51.07
2023-04-10T13:36:22.033Z,50.73
2023-04-10T13:38:49.858Z,50.80
2023-04-10T13:41:20.386Z,50.73
2023-04-10T13:43:48.215Z,51.10
2023-04-10T13:46:16.606Z,51.27
2023-04-10T13:48:44.516Z,51.10
2023-04-10T13:51:12.331Z,50.97
2023-04-10T13:53:40.239Z,51.23
2023-04-10T13:56:09.297Z,50.97
2023-04-10T13:58:38.429Z,50.37
2023-04-10T14:01:06.565Z,51.63
2023-04-10T14:03:34.524Z,51.20
2023-04-10T14:06:02.494Z,51.07
2023-04-10T14:08:30.300Z,50.97
2023-04-10T14:10:58.144Z,50.80
2023-04-10T14:13:26.107Z,50.87
2023-04-10T14:15:55.228Z,50.77
2023-04-10T14:18:23.007Z,50.83
2023-04-10T14:20:50.802Z,51.10
2023-04-10T14:23:18.726Z,50.77
2023-04-10T14:25:46.723Z,50.97
2023-04-10T14:28:17.706Z,51.07
2023-04-10T14:30:45.774Z,50.60
2023-04-10T14:33:14.995Z,51.20
2023-04-10T14:35:42.944Z,50.57
2023-04-10T14:38:11.077Z,50.80
2023-04-10T14:40:40.561Z,51.00
2023-04-10T14:43:08.769Z,50.97
2023-04-10T14:45:36.637Z,50.50
2023-04-10T14:48:04.848Z,50.93
2023-04-10T14:50:34.178Z,50.90
2023-04-10T14:53:01.969Z,50.70
2023-04-10T14:55:30.281Z,50.47
2023-04-10T14:57:58.979Z,50.40
2023-04-10T15:00:29.480Z,50.90
2023-04-10T15:02:58.104Z,50.77
2023-04-10T15:05:27.113Z,50.53
2023-04-10T15:07:56.260Z,50.50
2023-04-10T15:10:24.325Z,50.60
2023-04-10T15:12:52.128Z,50.43
2023-04-10T15:15:19.928Z,50.33
2023-04-10T15:17:47.776Z,50.37
2023-04-10T15:20:15.609Z,50.00
2023-04-10T15:22:44.911Z,50.43
2023-04-10T15:25:14.699Z,49.97
2023-04-10T15:27:42.503Z,49.87
2023-04-10T15:30:10.920Z,50.57
2023-04-10T15:32:38.867Z,50.67
2023-04-10T15:35:07.837Z,50.40
2023-04-10T15:37:36.567Z,50.33
2023-04-10T15:40:06.080Z,50.27
2023-04-10T15:42:35.502Z,49.67
2023-04-10T15:45:03.372Z,50.07
2023-04-10T15:47:31.294Z,50.23
2023-04-10T15:49:59.204Z,49.97
2023-04-10T15:52:29.086Z,50.03
2023-04-10T15:54:57.833Z,50.37
2023-04-10T15:57:25.715Z,50.33
2023-04-10T15:59:56.570Z,49.83
2023-04-10T16:02:24.603Z,49.80
2023-04-10T16:04:52.774Z,49.77
2023-04-10T16:07:20.914Z,50.00
2023-04-10T16:09:48.731Z,50.33
2023-04-10T16:12:16.721Z,49.97
2023-04-10T16:14:44.546Z,50.13
2023-04-10T16:17:13.698Z,50.00
2023-04-10T16:19:41.486Z,50.07
2023-04-10T16:22:09.317Z,50.07
2023-04-10T16:24:37.129Z,49.97
2023-04-10T16:27:05.032Z,50.37
2023-04-10T16:29:32.878Z,49.73
2023-04-10T16:32:00.683Z,49.87
2023-04-10T16:34:29.835Z,50.13
2023-04-10T16:36:57.647Z,50.20
2023-04-10T16:39:25.673Z,49.97
2023-04-10T16:41:53.785Z,49.90
2023-04-10T16:44:21.567Z,49.83
2023-04-10T16:46:49.470Z,50.03
2023-04-10T16:49:17.287Z,49.93
2023-04-10T16:51:46.428Z,50.03
2023-04-10T16:54:14.359Z,49.93
2023-04-10T16:56:42.584Z,49.70
2023-04-10T16:59:10.516Z,49.77
2023-04-10T17:01:40.397Z,49.70
2023-04-10T17:04:09.129Z,50.03
2023-04-10T17:06:37.143Z,49.73
2023-04-10T17:09:06.533Z,49.63
2023-04-10T17:11:34.340Z,49.87
2023-04-10T17:14:03.023Z,49.73
2023-04-10T17:16:31.133Z,50.27
2023-04-10T17:18:59.002Z,50.07
2023-04-10T17:21:28.094Z,49.70
2023-04-10T17:23:55.912Z,49.97
2023-04-10T17:26:25.227Z,50.07
2023-04-10T17:28:53.164Z,49.60
2023-04-10T17:31:21.246Z,49.40
2023-04-10T17:33:49.059Z,49.93
2023-04-10T17:36:16.925Z,49.40
2023-04-10T17:38:44.773Z,49.70
2023-04-10T17:41:15.705Z,49.70
2023-04-10T17:43:44.851Z,49.43
2023-04-10T17:46:14.783Z,49.40
2023-04-10T17:48:42.758Z,49.40
2023-04-10T17:51:11.142Z,49.70
2023-04-10T17:53:38.983Z,49.83
2023-04-10T17:56:08.379Z,49.80
2023-04-10T17:58:36.155Z,49.80
2023-04-10T18:01:07.163Z,49.47
2023-04-10T18:03:35.025Z,49.83
2023-04-10T18:06:02.898Z,49.63
2023-04-10T18:08:30.717Z,49.70
2023-04-10T18:10:58.599Z,50.00
2023-04-10T18:13:26.385Z,49.50
2023-04-10T18:15:54.195Z,49.03
2023-04-10T18:18:23.310Z,49.00
2023-04-10T18:20:51.116Z,48.87
2023-04-10T18:23:18.967Z,49.07
2023-04-10T18:25:53.921Z,49.00
2023-04-10T18:28:22.044Z,48.97
2023-04-10T18:30:50.004Z,48.87
2023-04-10T18:33:22.201Z,48.87
2023-04-10T18:35:51.683Z,48.33
2023-04-10T18:38:19.766Z,48.63
2023-04-10T18:40:47.673Z,48.23
2023-04-10T18:43:15.499Z,48.37
2023-04-10T18:45:44.357Z,48.47
2023-04-10T18:48:12.205Z,48.53
2023-04-10T18:50:40.007Z,48.13
2023-04-10T18:53:09.154Z,48.03
2023-04-10T18:55:36.985Z,48.30
2023-04-10T18:58:04.840Z,48.47
2023-04-10T19:00:34.012Z,48.17
2023-04-10T19:03:02.247Z,48.30
2023-04-10T19:05:32.369Z,48.27
2023-04-10T19:08:04.108Z,48.27
2023-04-10T19:10:33.684Z,48.10
2023-04-10T19:13:01.497Z,48.00
2023-04-10T19:15:29.396Z,48.13
2023-04-10T19:17:57.346Z,48.27
2023-04-10T19:20:50.738Z,48.37
2023-04-10T19:23:13.724Z,48.07
2023-04-10T19:25:43.604Z,47.83
2023-04-10T19:28:11.465Z,47.77
2023-04-10T19:30:39.300Z,47.70
2023-04-10T19:33:07.365Z,47.83
2023-04-10T19:35:35.239Z,48.10
2023-04-10T19:38:03.093Z,48.20
2023-04-10T19:40:31.466Z,47.73
2023-04-10T19:43:01.761Z,47.97
2023-04-10T19:45:32.074Z,47.90
2023-04-10T19:47:59.939Z,48.07
2023-04-10T19:50:30.253Z,47.80
2023-04-10T19:52:59.447Z,47.70
2023-04-10T19:55:27.892Z,47.77
2023-04-10T19:57:55.849Z,47.60
2023-04-10T20:00:25.097Z,47.27
2023-04-10T20:02:53.154Z,48.07
2023-04-10T20:05:21.210Z,47.40
2023-04-10T20:07:49.235Z,47.90
2023-04-10T20:10:17.039Z,47.67
2023-04-10T20:12:44.805Z,47.63
2023-04-10T20:15:13.359Z,47.63
2023-04-10T20:17:42.531Z,47.80
2023-04-10T20:20:12.556Z,47.67
2023-04-10T20:22:40.346Z,47.00
2023-04-10T20:25:09.108Z,47.37
2023-04-10T20:27:36.977Z,47.63
2023-04-10T20:30:05.670Z,47.30
2023-04-10T20:32:33.727Z,47.40
2023-04-10T20:35:02.948Z,47.47
2023-04-10T20:37:30.758Z,47.47
2023-04-10T20:39:58.566Z,47.37
2023-04-10T20:42:26.352Z,47.57
2023-04-10T20:44:55.281Z,47.20
2023-04-10T20:47:23.126Z,47.30
2023-04-10T20:49:50.934Z,47.23
2023-04-10T20:52:20.070Z,47.10
2023-04-10T20:54:47.906Z,47.30
2023-04-10T20:57:15.717Z,47.40
2023-04-10T20:59:43.706Z,47.03
2023-04-10T21:02:11.594Z,47.40
2023-04-10T21:04:39.426Z,47.00
2023-04-10T21:07:07.435Z,47.37
2023-04-10T21:09:36.591Z,47.20
2023-04-10T21:12:05.704Z,47.37
2023-04-10T21:14:35.663Z,47.40
2023-04-10T21:17:03.667Z,47.30
2023-04-10T21:19:31.467Z,47.30
2023-04-10T21:21:59.287Z,47.00
2023-04-10T21:24:27.112Z,47.37
2023-04-10T21:26:56.267Z,47.20
2023-04-10T21:29:24.917Z,47.10
2023-04-10T21:31:52.816Z,46.93
2023-04-10T21:34:20.633Z,47.17
2023-04-10T21:36:48.510Z,47.20
2023-04-10T21:39:16.290Z,46.93
2023-04-10T21:41:45.281Z,47.07
2023-04-10T21:44:14.411Z,47.60
2023-04-10T21:46:42.296Z,47.17
2023-04-10T21:49:10.224Z,47.10
2023-04-10T21:51:38.192Z,47.00
2023-04-10T21:54:06.112Z,47.10
2023-04-10T21:56:35.395Z,47.10
2023-04-10T21:59:03.738Z,47.17
2023-04-10T22:01:32.911Z,47.03
2023-04-10T22:04:00.907Z,46.50
2023-04-10T22:06:28.794Z,47.10
2023-04-10T22:08:56.759Z,46.63
2023-04-10T22:11:24.669Z,46.73
2023-04-10T22:13:53.584Z,46.83
2023-04-10T22:16:21.516Z,46.80
2023-04-10T22:18:50.704Z,46.83
2023-04-10T22:21:18.514Z,46.60
2023-04-10T22:23:46.306Z,47.07
2023-04-10T22:26:14.138Z,46.70
2023-04-10T22:28:41.935Z,46.47
2023-04-10T22:31:16.199Z,46.83
2023-04-10T22:33:44.282Z,46.80
2023-04-10T22:36:14.077Z,46.70
2023-04-10T22:38:41.905Z,46.43
2023-04-10T22:41:10.792Z,46.27
2023-04-10T22:43:38.617Z,46.67
2023-04-10T22:46:06.741Z,46.57
2023-04-10T22:48:34.623Z,46.90
2023-04-10T22:51:02.619Z,46.70
2023-04-10T22:53:31.738Z,46.57
2023-04-10T22:55:59.530Z,46.60
2023-04-10T22:58:27.328Z,46.83
2023-04-10T23:00:55.127Z,46.83
2023-04-10T23:03:23.146Z,46.70
2023-04-10T23:05:51.573Z,46.77
2023-04-10T23:08:19.357Z,46.57
2023-04-10T23:10:48.522Z,46.47
2023-04-10T23:13:16.304Z,46.53
2023-04-10T23:15:49.909Z,46.60
2023-04-10T23:18:17.825Z,46.47
2023-04-10T23:20:45.670Z,46.50
2023-04-10T23:23:13.505Z,46.43
2023-04-10T23:25:41.389Z,46.80
2023-04-10T23:28:10.750Z,46.77
2023-04-10T23:30:38.549Z,46.70
2023-04-10T23:33:06.402Z,46.80
2023-04-10T23:35:34.303Z,46.40
2023-04-10T23:38:02.154Z,46.63
2023-04-10T23:40:29.968Z,46.90
2023-04-10T23:42:57.738Z,46.73
2023-04-10T23:45:26.986Z,46.63
2023-04-10T23:47:54.906Z,46.60
2023-04-10T23:50:22.784Z,46.80
2023-04-10T23:52:50.819Z,46.57
2023-04-10T23:55:19.104Z,46.70
2023-04-10T23:57:46.891Z,46.77
